Dunreith, Indiana
Current Conditions -  °F | °C
As of 11:53 AM on Thursday 30 Oct 2014 (Local Time) from KGEZ Reporting Station
Scattered Clouds Scattered Clouds  
Wind Chill: 51°   Ceiling: Unl
Heat Index: 51°   Visibility: 10mi
Dew Point: 33°   Wind: 0mph
Humidity: 50%   Direction: NA
Pressure: 30.16"   Gusts: NA
Location:  39.8°N, 85.44°W
Report Text: KGEZ 301553Z AUTO 00000KT 10SM SCT037 11/01 A3016 RMK AO2 SLP214 T01060006
Loading
Personal Weather Stations






























Interactive Weather Map
Tropical Storm Tracking
New forecast layout! Learn more

10-Day Weather Forecast

Advertisements
Track Severe Weather on mobile